Key West, FL

8:18 AM EDT en Septiembre 23, 2014 (GMT -0400)
Key West International | Change Station
CLOSE
Current Station
Aeropuerto
Location: Key West,
Altura: 0 ft
Estaciones meteorológicas cercanas

Alt 0 ft 24.56 °N, 81.75 °W | Updated 8 minutes ago

Lluvia
Lluvia
74 ° F
Sensación térmica 74 ° F
N
7
Viento Variable Viento desde NNE

Hoy
Alta -- | Baja -- ° F
--% Posibilidad de precipitaciones
Ayer
Alta -- | Baja -- ° F
Precip. -- pul
7:16 AM 7:22 PM
Creciente menguante, 1% visible
Presión 30.00 pul
Visibilidad 9.0 Millas
Nubes Baja 6000 ft
Baja 8000 ft
Nublado 10000 ft
Punto de rocío 72 ° F
Humedad 93%
Precipitaciones 0.50 pul
Espesor de la nieve No disponible.
UV 0 de una escala de 12
Polen .50 de una escala de 12
Calidad del aire No disponible.
Flu Activity No disponible.
SPECI KEYW 231210Z 02006KT 9SM TSRA FEW060 FEW080 OVC100 23/22 A3000 RMK AO2 LTG DSNT N TSB04 P0002 T02330222

More Conditions Fewer Conditions

Presión 30.00 pul
Visibilidad 9.0 Millas
Nubes Baja 6000 ft
Baja 8000 ft
Nublado 10000 ft
Punto de rocío 72 ° F
Humedad 93%
Precipitaciones 0.50 pul
Espesor de la nieve No disponible.
UV 0 de una escala de 12
Polen .50 de una escala de 12
Calidad del aire No disponible.
Flu Activity No disponible.
SPECI KEYW 231210Z 02006KT 9SM TSRA FEW060 FEW080 OVC100 23/22 A3000 RMK AO2 LTG DSNT N TSB04 P0002 T02330222

More Conditions Fewer Conditions

Nowcast | as of 7:41 am EDT on September 23, 2014

Through 845 am...a swath of rain with embedded showers and thunderstorms will continue to spread northward across the Florida Keys and surrounding waters...from the outer Florida Straits...across the Lower and Middle Keys...and into the Gulf waters west of Mainland Monroe. The stronger activity will produce wind gusts near 35 mph...blinding downpours...and a few lightning strikes. Other weaker activity will be found near Key Largo and surrounding waters.

×

10-Day Weather Forecast

Almanac

Astronomía

Sep. 23, 2014 Salida Puesta
Hora real 7:16 AM EDT 7:22 PM EDT
Crepúsculo civil 6:53 AM EDT 7:45 PM EDT
Crepúsculo náutico 6:26 AM EDT 8:11 PM EDT
Crepúsculo astronómico 6:00 AM EDT 8:38 PM EDT
Luna 6:40 AM EDT 7:01 PM EDT
Horas de luz 12h 51m
Horas de luz
12h 06m
Tomorrow will be 1m 25s shorter.
Creciente menguante, 1% of the Moon is Illuminated
Hoy
Creciente menguante
Sep 24
Nueva
Oct 1
Cuarto creciente
Oct 8
Luna llena
Oct 15
Cuarto menguante

Extremos de hoy

Máximos del estado Bajos del estado

Community

WunderPhotos

Upload Photos

1,755,659 ¡fotos cargadas!

WunderBlogs® & News

Nearby

Grosos de nieve

Estación Profundido Altura
No tenemos constancia de nieve nueva.

Actividad de terremotos

Ciudad Distance Mag. Tiempo y dato
No hay informes recientes de la actividad sísmica.
Magnitud mínima muestra es 2,5.

Temperaturas de aguas costeras

Lugar Temperatura
Sin partes meteorológicos de las estaciones

Estaciones meteorológicas cercanas